Time;durP1;ratioP1;P1;durP2;ratioP2;P2;SDS_P1;SDS_P2;PMS_P1;PMS_P2;Temp;Humidity;BMP_temperature;BMP_pressure;BME280_temperature;BME280_humidity;BME280_pressure;Samples;Min_cycle;Max_cycle;Signal;HPM_P1;HPM_P2
2021/06/15 00:00:26;;;;;;;10.20;9.27;;;19.90;99.90;;;;;;5088302;28;20279;-39
2021/06/15 00:02:51;;;;;;;10.37;9.33;;;19.70;99.90;;;;;;5089076;28;20178;-38
2021/06/15 00:05:17;;;;;;;10.17;9.17;;;19.70;99.90;;;;;;5077268;28;20432;-38
2021/06/15 00:07:44;;;;;;;11.13;9.70;;;19.60;99.90;;;;;;5066141;28;20466;-39
2021/06/15 00:10:16;;;;;;;9.73;8.63;;;19.50;99.90;;;;;;5082587;28;20437;-38
2021/06/15 00:12:42;;;;;;;10.40;9.50;;;19.40;99.90;;;;;;5088754;28;20420;-38
2021/06/15 00:15:09;;;;;;;11.07;9.97;;;19.30;99.90;;;;;;5088801;28;20458;-38
2021/06/15 00:17:35;;;;;;;10.50;9.40;;;19.20;99.90;;;;;;5088798;28;20272;-38
2021/06/15 00:20:01;;;;;;;11.30;10.20;;;19.30;99.90;;;;;;5082554;28;20439;-38
2021/06/15 00:22:27;;;;;;;11.87;10.57;;;19.20;99.90;;;;;;5067221;28;20483;-38
2021/06/15 00:24:52;;;;;;;11.40;10.20;;;19.20;99.90;;;;;;5087511;28;20598;-39
2021/06/15 00:27:18;;;;;;;10.87;9.83;;;19.10;99.90;;;;;;5088529;28;20329;-38
2021/06/15 00:29:44;;;;;;;11.40;10.33;;;19.20;99.90;;;;;;5088036;28;20212;-38
2021/06/15 00:32:09;;;;;;;11.60;10.40;;;19.10;99.90;;;;;;5088524;28;20238;-38
2021/06/15 00:34:35;;;;;;;11.60;10.50;;;19.00;99.90;;;;;;5068754;28;20199;-38
2021/06/15 00:37:01;;;;;;;11.83;10.60;;;19.00;99.90;;;;;;5084318;28;20486;-38
2021/06/15 00:39:26;;;;;;;12.30;11.07;;;18.90;99.90;;;;;;5065496;28;20188;-38
2021/06/15 00:41:52;;;;;;;12.13;10.70;;;18.90;99.90;;;;;;5087955;28;20675;-38
2021/06/15 00:44:17;;;;;;;10.80;9.80;;;18.90;99.90;;;;;;5088402;28;20222;-38
2021/06/15 00:46:43;;;;;;;10.93;9.87;;;18.90;99.90;;;;;;5087626;28;20212;-39
2021/06/15 00:49:09;;;;;;;11.07;10.10;;;18.90;99.90;;;;;;5086674;28;20234;-38
2021/06/15 00:51:36;;;;;;;10.67;9.63;;;18.70;99.90;;;;;;5080222;28;20184;-38
2021/06/15 00:54:02;;;;;;;12.20;10.90;;;18.80;99.90;;;;;;5080256;28;20415;-38
2021/06/15 00:56:28;;;;;;;13.13;10.63;;;18.70;99.90;;;;;;5088403;28;20513;-38
2021/06/15 00:58:54;;;;;;;14.43;11.70;;;18.60;99.90;;;;;;5087128;28;20426;-38
2021/06/15 01:01:19;;;;;;;11.10;9.87;;;18.70;99.90;;;;;;5088094;28;20471;-38
2021/06/15 01:03:46;;;;;;;11.60;10.27;;;18.70;99.90;;;;;;5087898;28;20196;-38
2021/06/15 01:06:15;;;;;;;14.17;11.00;;;18.70;99.90;;;;;;5080424;28;20242;-38
2021/06/15 01:08:54;;;;;;;11.83;10.70;;;18.60;99.90;;;;;;5078985;28;20983;-38
2021/06/15 01:11:38;;;;;;;12.00;10.80;;;18.50;99.90;;;;;;5088128;28;20768;-38
2021/06/15 01:14:43;;;;;;;12.30;11.20;;;18.50;99.90;;;;;;5087386;28;20497;-38
2021/06/15 01:17:17;;;;;;;12.03;10.80;;;18.50;99.90;;;;;;5087591;28;20414;-38
2021/06/15 01:20:02;;;;;;;14.57;12.17;;;18.50;99.90;;;;;;5064267;28;20445;-38
2021/06/15 01:22:43;;;;;;;13.57;11.90;;;18.50;99.90;;;;;;5086405;28;20846;-38
2021/06/15 01:25:31;;;;;;;12.60;11.13;;;18.50;99.90;;;;;;5087160;28;20781;-38
2021/06/15 01:28:01;;;;;;;13.47;12.27;;;18.50;99.90;;;;;;5070173;28;20458;-38
2021/06/15 01:30:39;;;;;;;12.40;11.10;;;18.50;99.90;;;;;;5073973;28;20407;-38
2021/06/15 01:33:07;;;;;;;12.73;11.43;;;18.50;99.90;;;;;;5087426;28;20421;-38
2021/06/15 01:35:35;;;;;;;13.03;11.70;;;18.50;99.90;;;;;;5057539;28;20949;-38
2021/06/15 01:38:07;;;;;;;13.67;12.30;;;18.50;99.90;;;;;;5076192;28;20450;-38
2021/06/15 01:40:50;;;;;;;12.93;11.63;;;18.50;99.90;;;;;;5078809;28;20642;-38
2021/06/15 01:43:44;;;;;;;17.60;12.60;;;18.50;99.90;;;;;;5087043;28;20426;-38
2021/06/15 01:46:12;;;;;;;13.27;11.93;;;18.50;99.90;;;;;;5078274;28;20489;-38
2021/06/15 01:48:59;;;;;;;15.13;13.50;;;18.50;99.90;;;;;;5086922;28;20517;-38
2021/06/15 01:51:26;;;;;;;14.40;13.00;;;18.50;99.90;;;;;;5083881;28;20430;-38
2021/06/15 01:53:58;;;;;;;15.07;13.47;;;18.50;99.90;;;;;;5077563;28;20491;-38
2021/06/15 01:56:27;;;;;;;14.30;12.90;;;18.50;99.90;;;;;;5073598;28;20440;-38
2021/06/15 01:58:56;;;;;;;14.13;12.77;;;18.50;99.90;;;;;;5068171;28;20419;-38
2021/06/15 02:01:22;;;;;;;15.17;12.20;;;18.60;99.90;;;;;;5086854;28;20449;-38
2021/06/15 02:03:52;;;;;;;15.10;13.70;;;18.50;99.90;;;;;;5068995;28;20421;-38
2021/06/15 02:06:22;;;;;;;13.67;12.37;;;18.50;99.90;;;;;;5078613;28;20459;-38
2021/06/15 02:08:51;;;;;;;17.73;15.00;;;18.60;99.90;;;;;;5063557;28;20416;-38
2021/06/15 02:11:18;;;;;;;16.47;14.57;;;18.50;99.90;;;;;;5068478;28;20430;-38
2021/06/15 02:13:46;;;;;;;16.83;15.07;;;18.50;99.90;;;;;;5086561;28;20506;-39
2021/06/15 02:16:13;;;;;;;19.17;16.97;;;18.50;99.90;;;;;;5086720;28;20881;-38
2021/06/15 02:18:42;;;;;;;17.10;15.40;;;18.60;99.90;;;;;;5085922;28;20434;-38
2021/06/15 02:21:10;;;;;;;18.50;16.67;;;18.60;99.90;;;;;;5059985;28;20484;-38
2021/06/15 02:23:37;;;;;;;21.80;17.20;;;18.40;99.90;;;;;;5085415;28;20426;-38
2021/06/15 02:26:08;;;;;;;20.63;17.90;;;18.40;99.90;;;;;;5078014;28;20976;-38
2021/06/15 02:28:37;;;;;;;17.53;15.83;;;18.30;99.90;;;;;;5085796;28;20501;-38
2021/06/15 02:31:06;;;;;;;20.80;18.70;;;18.30;99.90;;;;;;5086318;28;20454;-38
2021/06/15 02:33:36;;;;;;;18.83;16.97;;;18.30;99.90;;;;;;5086460;28;20849;-38
2021/06/15 02:36:10;;;;;;;21.83;19.13;;;18.40;99.90;;;;;;5081866;28;20810;-38
2021/06/15 02:38:42;;;;;;;22.20;17.77;;;18.50;99.90;;;;;;5080664;28;20418;-38
2021/06/15 02:41:13;;;;;;;21.40;18.40;;;18.50;99.90;;;;;;5081242;28;20423;-38
2021/06/15 02:43:40;;;;;;;19.90;17.80;;;18.50;99.90;;;;;;5086309;28;20434;-38
2021/06/15 02:46:09;;;;;;;17.67;15.93;;;18.50;99.90;;;;;;5068421;28;20458;-39
2021/06/15 02:48:37;;;;;;;21.77;17.50;;;18.60;99.90;;;;;;5067411;28;20821;-38
2021/06/15 02:51:08;;;;;;;20.70;17.50;;;18.60;99.90;;;;;;5082359;28;20431;-38
2021/06/15 02:53:47;;;;;;;20.50;18.43;;;18.50;99.90;;;;;;5060998;28;20433;-38
2021/06/15 02:56:17;;;;;;;20.00;16.93;;;18.50;99.90;;;;;;5079683;28;20433;-38
2021/06/15 02:58:47;;;;;;;19.73;17.83;;;18.40;99.90;;;;;;5071047;28;20495;-38
2021/06/15 03:01:14;;;;;;;19.70;17.60;;;18.30;99.90;;;;;;5077769;28;20439;-38
2021/06/15 03:03:39;;;;;;;18.70;16.73;;;18.40;99.90;;;;;;5086076;28;20501;-38
2021/06/15 03:06:06;;;;;;;18.27;16.30;;;18.40;99.90;;;;;;5061487;28;20897;-38
2021/06/15 03:08:34;;;;;;;18.20;16.40;;;18.40;99.90;;;;;;5084927;28;20414;-38
2021/06/15 03:11:04;;;;;;;18.10;16.20;;;18.40;99.90;;;;;;5068514;28;20414;-38
2021/06/15 03:13:48;;;;;;;18.70;16.90;;;18.50;99.90;;;;;;5071620;28;20493;-38
2021/06/15 03:16:17;;;;;;;19.47;16.80;;;18.40;99.90;;;;;;5089964;28;20692;-38
2021/06/15 03:19:00;;;;;;;21.40;17.37;;;18.40;99.90;;;;;;5051266;28;20426;-38
2021/06/15 03:21:28;;;;;;;19.87;16.87;;;18.30;99.90;;;;;;5075322;28;20426;-38
2021/06/15 03:24:03;;;;;;;19.57;16.47;;;18.30;99.90;;;;;;5088682;28;20773;-38
2021/06/15 03:27:04;;;;;;;20.00;17.90;;;18.30;99.90;;;;;;5090976;28;20454;-38
2021/06/15 03:29:34;;;;;;;19.67;17.53;;;18.30;99.90;;;;;;5086264;28;20931;-38
2021/06/15 03:32:05;;;;;;;20.30;17.17;;;18.20;99.90;;;;;;5066725;28;20403;-39
2021/06/15 03:34:32;;;;;;;18.80;16.90;;;18.10;99.90;;;;;;5071142;28;20840;-38
2021/06/15 03:36:59;;;;;;;20.47;17.20;;;18.10;99.90;;;;;;5079219;28;20943;-38
2021/06/15 03:39:29;;;;;;;19.60;17.60;;;18.20;99.90;;;;;;5088962;28;20450;-39
2021/06/15 03:42:00;;;;;;;19.13;17.20;;;18.20;99.90;;;;;;5090769;28;20959;-38
2021/06/15 03:44:26;;;;;;;21.17;17.10;;;18.20;99.90;;;;;;5091369;28;20791;-38
2021/06/15 03:46:58;;;;;;;20.47;18.27;;;18.20;99.90;;;;;;5089763;28;20515;-38
2021/06/15 03:49:25;;;;;;;19.20;17.33;;;18.20;99.90;;;;;;5083353;28;20422;-38
2021/06/15 03:51:53;;;;;;;20.47;17.30;;;18.20;99.90;;;;;;5086312;28;20437;-38
2021/06/15 03:54:21;;;;;;;20.93;18.37;;;18.20;99.90;;;;;;5087993;28;20419;-38
2021/06/15 03:56:50;;;;;;;20.67;17.50;;;18.20;99.90;;;;;;5081254;28;20505;-38
2021/06/15 03:59:26;;;;;;;21.80;16.80;;;18.20;99.90;;;;;;5088669;28;20984;-38
2021/06/15 04:01:55;;;;;;;19.03;17.03;;;18.30;99.90;;;;;;5078833;28;20909;-38
2021/06/15 04:04:21;;;;;;;23.03;18.00;;;18.20;99.90;;;;;;5065201;28;20506;-38
2021/06/15 04:06:50;;;;;;;19.67;17.57;;;18.10;99.90;;;;;;5077675;28;20869;-38
2021/06/15 04:09:19;;;;;;;19.87;17.60;;;18.20;99.90;;;;;;5081566;28;20418;-38
2021/06/15 04:11:46;;;;;;;19.07;17.07;;;18.20;99.90;;;;;;5071484;28;20415;-38
2021/06/15 04:14:13;;;;;;;20.07;17.97;;;18.10;99.90;;;;;;5072352;28;21177;-38
2021/06/15 04:16:40;;;;;;;19.53;17.23;;;18.10;99.90;;;;;;5072509;28;20430;-38
2021/06/15 04:19:11;;;;;;;20.60;16.70;;;18.10;99.90;;;;;;5089971;28;20474;-38
2021/06/15 04:21:42;;;;;;;19.07;16.80;;;18.20;99.90;;;;;;5088148;28;20434;-38
2021/06/15 04:24:12;;;;;;;20.70;17.70;;;18.10;99.90;;;;;;5085564;28;20560;-38
2021/06/15 04:26:38;;;;;;;20.93;17.73;;;18.20;99.90;;;;;;5089322;28;20826;-38
2021/06/15 04:29:06;;;;;;;19.80;17.80;;;18.10;99.90;;;;;;5089629;28;20451;-38
2021/06/15 04:31:34;;;;;;;22.10;18.07;;;18.10;99.90;;;;;;5090610;28;20895;-38
2021/06/15 04:34:01;;;;;;;20.53;17.30;;;18.10;99.90;;;;;;5090385;28;20964;-38
2021/06/15 04:36:30;;;;;;;20.00;17.27;;;18.10;99.90;;;;;;5089632;28;20426;-38
2021/06/15 04:39:03;;;;;;;18.87;16.80;;;18.10;99.90;;;;;;5064128;28;20422;-38
2021/06/15 04:41:50;;;;;;;18.90;15.93;;;18.10;99.90;;;;;;5085387;28;20815;-38
2021/06/15 04:44:22;;;;;;;20.70;17.20;;;18.10;99.90;;;;;;5089197;28;20414;-39
2021/06/15 04:46:55;;;;;;;19.60;17.57;;;18.10;99.90;;;;;;5087055;28;20450;-38
2021/06/15 04:49:36;;;;;;;17.80;15.33;;;18.10;99.90;;;;;;5082185;28;20407;-38
2021/06/15 04:52:04;;;;;;;17.67;14.73;;;18.20;99.90;;;;;;5080791;28;20415;-38
2021/06/15 04:54:35;;;;;;;16.53;14.80;;;18.20;99.90;;;;;;5083432;28;20426;-38
2021/06/15 04:57:05;;;;;;;17.87;16.07;;;18.30;99.90;;;;;;5084129;28;20513;-38
2021/06/15 04:59:33;;;;;;;17.83;15.60;;;18.40;99.90;;;;;;5088964;28;20461;-38
2021/06/15 05:01:59;;;;;;;20.27;17.50;;;18.40;99.90;;;;;;5082619;28;20415;-38
2021/06/15 05:04:26;;;;;;;21.00;15.27;;;18.50;99.90;;;;;;5083397;28;20430;-38
2021/06/15 05:06:52;;;;;;;17.90;15.37;;;18.50;99.90;;;;;;5077282;28;20247;-38
2021/06/15 05:09:23;;;;;;;17.97;15.60;;;18.50;99.90;;;;;;5084327;28;20952;-38
2021/06/15 05:11:50;;;;;;;21.67;17.40;;;18.50;99.90;;;;;;5068495;28;20509;-38
2021/06/15 05:14:17;;;;;;;17.40;15.80;;;18.40;99.90;;;;;;5089448;28;20410;-38
2021/06/15 05:16:44;;;;;;;20.83;16.70;;;18.50;99.90;;;;;;5089533;28;20422;-38
2021/06/15 05:19:10;;;;;;;17.63;15.83;;;18.50;99.90;;;;;;5089076;28;20501;-38
2021/06/15 05:21:48;;;;;;;18.57;14.83;;;18.50;99.90;;;;;;5086812;28;21306;-38
2021/06/15 05:24:29;;;;;;;19.73;15.83;;;18.50;99.90;;;;;;5084006;28;20414;-38
2021/06/15 05:26:55;;;;;;;22.17;17.43;;;18.50;99.90;;;;;;5087430;28;20454;-38
2021/06/15 05:29:20;;;;;;;17.23;15.40;;;18.50;99.90;;;;;;5088698;28;20444;-38
2021/06/15 05:31:46;;;;;;;18.73;15.50;;;18.60;99.90;;;;;;5070619;28;20191;-38
2021/06/15 05:34:11;;;;;;;17.73;15.70;;;18.60;99.90;;;;;;5089287;28;20257;-38
2021/06/15 05:36:37;;;;;;;15.87;14.17;;;18.70;99.90;;;;;;5085544;28;20191;-38
2021/06/15 05:39:03;;;;;;;16.90;14.90;;;18.80;99.90;;;;;;5083340;28;20674;-38
2021/06/15 05:41:29;;;;;;;19.73;17.60;;;18.90;99.90;;;;;;5079028;28;20207;-38
2021/06/15 05:43:54;;;;;;;19.43;16.00;;;18.90;99.90;;;;;;5088852;28;20434;-38
2021/06/15 05:46:20;;;;;;;23.73;17.90;;;19.10;99.90;;;;;;5088739;28;20254;-38
2021/06/15 05:48:46;;;;;;;17.37;15.57;;;19.20;99.90;;;;;;5088134;28;20312;-38
2021/06/15 05:51:11;;;;;;;19.47;16.30;;;19.20;99.90;;;;;;5088422;28;20607;-38
2021/06/15 05:53:37;;;;;;;17.13;15.30;;;19.20;99.90;;;;;;5080854;28;20180;-38
2021/06/15 05:56:04;;;;;;;20.97;16.43;;;19.40;99.90;;;;;;5087586;28;20204;-38
2021/06/15 05:58:29;;;;;;;21.47;17.17;;;19.50;99.90;;;;;;5088613;28;20191;-38
2021/06/15 06:00:55;;;;;;;17.60;15.87;;;19.60;99.90;;;;;;5088174;28;20418;-39
2021/06/15 06:03:28;;;;;;;18.90;15.73;;;19.70;99.90;;;;;;5070510;28;20192;-39
2021/06/15 06:08:39;;;;;;;17.23;15.37;;;19.80;99.90;;;;;;5073625;28;20585;-38
2021/06/15 06:11:05;;;;;;;17.73;14.73;;;20.00;99.90;;;;;;5083178;28;20989;-39
2021/06/15 06:13:31;;;;;;;20.77;16.40;;;20.20;99.90;;;;;;5083703;28;20219;-38
2021/06/15 06:15:59;;;;;;;19.90;14.17;;;20.30;99.90;;;;;;5088586;28;20299;-38
2021/06/15 06:18:25;;;;;;;22.00;16.30;;;20.30;99.90;;;;;;5088381;28;20200;-39
2021/06/15 06:20:51;;;;;;;18.83;16.80;;;20.30;99.90;;;;;;5087966;28;20418;-38
2021/06/15 06:23:18;;;;;;;20.47;15.83;;;20.40;99.90;;;;;;5075481;28;20435;-38
2021/06/15 06:25:44;;;;;;;18.20;15.73;;;20.50;99.90;;;;;;5062089;28;20521;-38
2021/06/15 06:28:10;;;;;;;17.83;15.67;;;20.70;99.90;;;;;;5083622;28;20487;-38
2021/06/15 06:30:36;;;;;;;19.93;16.97;;;20.70;99.90;;;;;;5087622;28;20230;-38
2021/06/15 06:33:03;;;;;;;16.60;14.70;;;20.70;99.90;;;;;;5088485;28;20195;-39
2021/06/15 06:35:29;;;;;;;15.73;14.03;;;20.80;99.90;;;;;;5088168;28;20430;-38
2021/06/15 06:37:55;;;;;;;17.37;15.63;;;21.00;99.90;;;;;;5083431;28;21118;-38
2021/06/15 06:40:21;;;;;;;18.90;16.90;;;21.20;99.90;;;;;;5081175;28;20440;-38
2021/06/15 06:42:46;;;;;;;18.97;16.47;;;21.30;99.90;;;;;;5083271;28;20233;-38
2021/06/15 06:45:13;;;;;;;19.23;16.47;;;21.40;99.90;;;;;;5075277;28;20848;-38
2021/06/15 06:47:39;;;;;;;19.53;17.43;;;21.40;99.90;;;;;;5083102;28;20308;-38
2021/06/15 06:50:05;;;;;;;17.50;15.63;;;21.50;99.90;;;;;;5084942;28;20667;-38
2021/06/15 06:52:31;;;;;;;20.27;16.43;;;21.50;99.90;;;;;;5080346;28;21131;-39
2021/06/15 06:54:57;;;;;;;18.77;16.87;;;21.60;99.90;;;;;;5068431;28;20426;-38
2021/06/15 06:57:23;;;;;;;18.30;16.17;;;21.80;99.90;;;;;;5081503;28;20430;-38
2021/06/15 06:59:48;;;;;;;21.43;18.13;;;21.80;99.90;;;;;;5065595;28;20284;-38
2021/06/15 07:02:14;;;;;;;20.63;18.50;;;21.80;99.90;;;;;;5084275;28;20188;-38
2021/06/15 07:04:40;;;;;;;19.63;16.43;;;21.60;99.90;;;;;;5077463;28;20284;-39
2021/06/15 07:07:05;;;;;;;19.73;16.17;;;21.70;99.90;;;;;;5069290;28;20218;-38
2021/06/15 07:09:31;;;;;;;21.63;16.27;;;21.70;99.90;;;;;;5079436;28;20635;-38
2021/06/15 07:11:57;;;;;;;22.60;17.93;;;21.80;99.90;;;;;;5078288;28;20650;-39
2021/06/15 07:14:22;;;;;;;18.67;16.60;;;22.00;99.90;;;;;;5086454;28;20180;-39
2021/06/15 07:16:48;;;;;;;20.73;17.70;;;22.00;99.90;;;;;;5086276;28;20249;-39
2021/06/15 07:19:14;;;;;;;19.40;17.30;;;22.10;99.90;;;;;;5085582;28;20180;-38
2021/06/15 07:21:39;;;;;;;20.10;18.13;;;22.10;99.90;;;;;;5086047;28;20203;-38
2021/06/15 07:24:06;;;;;;;18.47;16.67;;;22.10;99.90;;;;;;5057578;28;20188;-38
2021/06/15 07:26:31;;;;;;;19.10;15.97;;;22.20;99.90;;;;;;5081731;28;20215;-39
2021/06/15 07:28:59;;;;;;;18.40;15.73;;;22.20;99.90;;;;;;5067231;28;20414;-38
2021/06/15 07:31:25;;;;;;;18.50;16.70;;;22.40;99.90;;;;;;5086021;28;20196;-39
2021/06/15 07:33:50;;;;;;;21.50;16.57;;;22.40;99.90;;;;;;5084224;28;20422;-39
2021/06/15 07:36:16;;;;;;;17.27;15.20;;;22.40;99.90;;;;;;5084735;28;20320;-38
2021/06/15 07:38:42;;;;;;;26.67;15.80;;;22.50;99.90;;;;;;5077200;28;20196;-38
2021/06/15 07:41:08;;;;;;;20.37;18.07;;;22.50;99.90;;;;;;5064895;28;20224;-39
2021/06/15 07:43:36;;;;;;;18.90;16.90;;;22.60;99.90;;;;;;5081305;28;20201;-39
2021/06/15 07:46:02;;;;;;;18.80;16.43;;;22.60;99.90;;;;;;5082512;28;20567;-39
2021/06/15 07:48:28;;;;;;;19.67;17.67;;;22.70;99.90;;;;;;5081327;28;20433;-39
2021/06/15 07:50:53;;;;;;;17.40;15.60;;;22.70;99.90;;;;;;5084489;28;20176;-38
2021/06/15 07:53:19;;;;;;;19.30;17.30;;;22.70;99.90;;;;;;5075998;28;20276;-39
2021/06/15 07:55:45;;;;;;;17.90;16.10;;;22.80;99.90;;;;;;5084674;28;20550;-39
2021/06/15 07:58:13;;;;;;;20.20;18.03;;;22.90;99.90;;;;;;5061782;28;20196;-39
2021/06/15 08:00:39;;;;;;;19.63;16.83;;;22.90;99.90;;;;;;5069117;28;20188;-39
2021/06/15 08:03:04;;;;;;;30.57;19.90;;;22.90;99.90;;;;;;5087942;28;20521;-39
2021/06/15 08:05:30;;;;;;;18.70;16.10;;;22.90;99.90;;;;;;5070335;28;20535;-39
2021/06/15 08:07:56;;;;;;;17.73;15.90;;;22.80;99.90;;;;;;5082174;28;20273;-39
2021/06/15 08:10:22;;;;;;;26.50;18.10;;;22.80;99.90;;;;;;5077909;28;20189;-38
2021/06/15 08:12:48;;;;;;;21.07;15.40;;;22.80;99.90;;;;;;5084902;28;20651;-39
2021/06/15 08:15:15;;;;;;;17.37;12.80;;;22.70;99.90;;;;;;5069487;28;20591;-38
2021/06/15 08:17:41;;;;;;;15.53;13.90;;;22.70;99.90;;;;;;5087947;28;20426;-38
2021/06/15 08:20:07;;;;;;;15.73;13.83;;;22.80;99.90;;;;;;5087367;28;20468;-39
2021/06/15 08:22:33;;;;;;;16.47;14.77;;;22.80;99.90;;;;;;5084108;28;20286;-38
2021/06/15 08:24:59;;;;;;;18.40;14.50;;;22.80;99.90;;;;;;5052880;28;20435;-39
2021/06/15 08:27:24;;;;;;;22.20;17.60;;;22.70;99.90;;;;;;5067469;28;20674;-39
2021/06/15 08:29:50;;;;;;;27.07;19.17;;;22.70;99.90;;;;;;5086622;28;20192;-38
2021/06/15 08:32:16;;;;;;;18.00;16.10;;;22.70;99.90;;;;;;5086853;28;20188;-39
2021/06/15 08:34:41;;;;;;;16.20;14.50;;;22.60;99.90;;;;;;5087131;28;20573;-39
2021/06/15 08:37:07;;;;;;;17.00;15.17;;;22.70;99.90;;;;;;5069036;28;20268;-39
2021/06/15 08:39:33;;;;;;;16.10;14.60;;;22.80;99.90;;;;;;5072623;28;20250;-39
2021/06/15 08:41:59;;;;;;;25.27;18.20;;;22.90;99.90;;;;;;5059397;28;20443;-39
2021/06/15 08:44:25;;;;;;;22.10;17.37;;;23.10;99.90;;;;;;5047293;28;20461;-39
2021/06/15 08:46:51;;;;;;;19.03;16.50;;;23.00;99.90;;;;;;5086211;28;20223;-39
2021/06/15 08:49:17;;;;;;;18.07;16.27;;;23.10;99.90;;;;;;5086755;28;20222;-39
2021/06/15 08:51:44;;;;;;;16.90;14.37;;;23.10;99.90;;;;;;5068828;28;20933;-39
2021/06/15 08:54:15;;;;;;;18.70;14.00;;;23.20;99.90;;;;;;5082673;28;20454;-39
2021/06/15 08:56:42;;;;;;;18.83;16.83;;;23.20;99.90;;;;;;5061093;28;20442;-39
2021/06/15 08:59:31;;;;;;;15.47;13.97;;;23.30;99.90;;;;;;5083636;28;20445;-39
2021/06/15 09:02:01;;;;;;;15.87;14.13;;;23.40;99.90;;;;;;5048686;28;20451;-39
2021/06/15 09:04:27;;;;;;;21.10;17.77;;;23.60;99.90;;;;;;5074622;28;20441;-39
2021/06/15 09:06:57;;;;;;;20.57;17.80;;;23.80;99.90;;;;;;5068450;28;20470;-39
2021/06/15 09:09:56;;;;;;;25.50;17.60;;;24.00;99.90;;;;;;5079084;28;20200;-39
2021/06/15 09:12:21;;;;;;;18.30;15.10;;;24.10;99.90;;;;;;5049435;28;20554;-39
2021/06/15 09:14:55;;;;;;;28.53;16.27;;;24.20;99.90;;;;;;5086884;28;20509;-39
2021/06/15 09:17:29;;;;;;;17.57;14.07;;;24.20;99.90;;;;;;5086800;28;20204;-39
2021/06/15 09:20:08;;;;;;;16.27;14.20;;;24.40;99.90;;;;;;5086008;28;20958;-39
2021/06/15 09:22:35;;;;;;;15.10;13.50;;;24.40;99.90;;;;;;5087125;28;20434;-39
2021/06/15 09:25:06;;;;;;;18.80;14.90;;;24.30;99.90;;;;;;5080019;28;20855;-39
2021/06/15 09:27:34;;;;;;;16.07;13.77;;;24.20;99.90;;;;;;5081848;28;20466;-38
2021/06/15 09:30:02;;;;;;;18.43;16.20;;;24.20;99.90;;;;;;5086278;28;20434;-39
2021/06/15 09:32:35;;;;;;;14.03;11.90;;;24.30;99.90;;;;;;5086692;28;20505;-39
2021/06/15 09:35:03;;;;;;;12.10;10.83;;;24.30;99.90;;;;;;5086333;28;20429;-39
2021/06/15 09:37:47;;;;;;;13.33;10.70;;;24.40;99.90;;;;;;5086778;28;20426;-39
2021/06/15 09:40:21;;;;;;;12.33;11.03;;;24.50;99.90;;;;;;5071990;28;20472;-39
2021/06/15 09:42:57;;;;;;;12.20;10.90;;;24.60;99.90;;;;;;5077906;28;20457;-39
2021/06/15 09:45:29;;;;;;;13.90;12.50;;;24.70;99.90;;;;;;5086415;28;20426;-39
2021/06/15 09:48:24;;;;;;;15.50;13.40;;;24.80;99.90;;;;;;5086151;28;21052;-39
2021/06/15 09:50:52;;;;;;;15.47;11.23;;;24.80;99.90;;;;;;5067543;28;20422;-39
2021/06/15 09:53:30;;;;;;;11.33;10.07;;;24.80;99.90;;;;;;5085358;28;20442;-39
2021/06/15 09:56:04;;;;;;;8.50;7.60;;;24.80;99.90;;;;;;5078120;28;20773;-38
2021/06/15 09:58:41;;;;;;;9.27;8.47;;;24.90;99.80;;;;;;5086273;28;20475;-39
2021/06/15 10:01:07;;;;;;;13.87;10.50;;;24.90;99.10;;;;;;5086069;28;20425;-39
2021/06/15 10:03:32;;;;;;;9.53;8.20;;;24.80;99.60;;;;;;5086186;28;20414;-39
2021/06/15 10:05:58;;;;;;;10.00;6.93;;;24.70;99.70;;;;;;5085648;28;20207;-39
2021/06/15 10:08:40;;;;;;;9.77;8.63;;;24.70;99.00;;;;;;5085351;28;20199;-39
2021/06/15 10:11:07;;;;;;;4.73;4.33;;;24.70;97.00;;;;;;5081385;28;20184;-39
2021/06/15 10:13:33;;;;;;;7.70;6.90;;;24.70;97.60;;;;;;5081507;28;20444;-39
2021/06/15 10:15:58;;;;;;;8.50;7.50;;;24.80;97.10;;;;;;5085606;28;20415;-39
2021/06/15 10:18:24;;;;;;;6.80;5.87;;;24.70;98.00;;;;;;5084824;28;20211;-39
2021/06/15 10:20:51;;;;;;;8.30;6.50;;;24.70;98.40;;;;;;5084889;28;20195;-38
2021/06/15 10:23:16;;;;;;;7.37;6.30;;;24.80;98.20;;;;;;5083548;28;20977;-39
2021/06/15 10:25:43;;;;;;;5.87;5.17;;;24.80;98.40;;;;;;5059355;28;20681;-39
2021/06/15 10:28:13;;;;;;;8.00;7.20;;;24.70;98.20;;;;;;5077417;28;20216;-39
2021/06/15 10:30:42;;;;;;;7.73;6.53;;;24.60;97.00;;;;;;5084987;28;20427;-39
2021/06/15 10:33:23;;;;;;;7.30;6.60;;;24.50;98.00;;;;;;5085463;28;20948;-39
2021/06/15 10:35:53;;;;;;;10.67;8.33;;;24.70;98.90;;;;;;5067903;28;20441;-39
2021/06/15 10:38:43;;;;;;;11.40;8.97;;;24.80;99.30;;;;;;5084326;28;21014;-39
2021/06/15 10:41:23;;;;;;;11.13;10.03;;;25.00;98.60;;;;;;5055937;28;20478;-39
2021/06/15 10:43:53;;;;;;;10.27;8.90;;;25.20;99.40;;;;;;5076152;28;20449;-39
2021/06/15 10:46:19;;;;;;;8.83;6.97;;;25.40;99.90;;;;;;5047168;28;20478;-39
2021/06/15 10:49:03;;;;;;;6.53;5.17;;;25.40;98.30;;;;;;5076074;28;20426;-39
2021/06/15 10:51:51;;;;;;;5.90;4.40;;;25.50;98.30;;;;;;5085567;28;20693;-39
2021/06/15 10:54:40;;;;;;;5.23;4.00;;;25.70;96.40;;;;;;5065002;28;20453;-39
2021/06/15 10:57:28;;;;;;;5.30;4.20;;;25.70;95.20;;;;;;5079517;28;20438;-39
2021/06/15 11:00:04;;;;;;;5.30;4.57;;;25.80;95.50;;;;;;5074027;28;20795;-39
2021/06/15 11:02:33;;;;;;;5.60;4.83;;;25.70;93.20;;;;;;5085110;28;20429;-39
2021/06/15 11:05:19;;;;;;;6.30;3.93;;;25.70;95.20;;;;;;5085561;28;20511;-39
2021/06/15 11:07:45;;;;;;;5.17;4.07;;;25.80;95.60;;;;;;5066984;28;20972;-39
2021/06/15 11:10:11;;;;;;;5.90;4.70;;;26.00;96.10;;;;;;5072383;28;20717;-39
2021/06/15 11:12:47;;;;;;;7.43;5.20;;;26.20;95.30;;;;;;5061023;28;20425;-39
2021/06/15 11:15:21;;;;;;;9.87;4.97;;;26.30;94.60;;;;;;5062918;28;20176;-39
2021/06/15 11:17:52;;;;;;;6.60;4.40;;;26.20;94.80;;;;;;5085079;28;20464;-39
2021/06/15 11:20:33;;;;;;;5.23;3.80;;;26.20;93.90;;;;;;5084819;28;20418;-39
2021/06/15 11:23:17;;;;;;;5.77;4.83;;;26.20;95.20;;;;;;5085005;28;20501;-39
2021/06/15 11:25:49;;;;;;;6.70;4.73;;;26.20;94.70;;;;;;5083683;28;20430;-39
2021/06/15 11:28:37;;;;;;;5.63;3.73;;;26.30;94.50;;;;;;5080155;28;20860;-39
2021/06/15 11:31:33;;;;;;;4.50;4.00;;;26.30;94.80;;;;;;5089034;28;20797;-39
2021/06/15 11:33:59;;;;;;;7.07;4.10;;;26.40;95.00;;;;;;5072160;28;20481;-39
2021/06/15 11:36:53;;;;;;;4.80;4.10;;;26.50;94.00;;;;;;5089066;28;20528;-39
2021/06/15 11:39:27;;;;;;;10.20;4.57;;;26.50;94.00;;;;;;5086157;28;20192;-38
2021/06/15 11:42:17;;;;;;;4.40;4.00;;;26.50;93.80;;;;;;5082997;28;20438;-39
2021/06/15 11:44:55;;;;;;;6.67;3.50;;;26.40;93.60;;;;;;5086662;28;20430;-39
2021/06/15 11:47:39;;;;;;;5.20;3.67;;;26.40;94.80;;;;;;5089199;28;20476;-39
2021/06/15 11:50:05;;;;;;;6.67;3.87;;;26.50;94.40;;;;;;5076574;28;20417;-39
2021/06/15 11:52:31;;;;;;;10.70;4.83;;;26.50;94.40;;;;;;5088855;28;20529;-39
2021/06/15 11:54:58;;;;;;;4.73;4.23;;;26.60;94.30;;;;;;5079172;28;20187;-39
2021/06/15 11:57:24;;;;;;;5.37;3.93;;;26.70;94.20;;;;;;5086309;28;20430;-39
2021/06/15 11:59:50;;;;;;;8.60;4.70;;;26.70;92.70;;;;;;5063811;28;20480;-39
2021/06/15 12:02:20;;;;;;;4.70;3.30;;;26.40;93.30;;;;;;5070227;28;20878;-39
2021/06/15 12:05:09;;;;;;;5.53;4.87;;;26.20;94.20;;;;;;5088108;28;20210;-38
2021/06/15 12:07:39;;;;;;;8.57;4.17;;;26.30;93.70;;;;;;5088305;28;20462;-39
2021/06/15 12:10:15;;;;;;;4.30;3.83;;;26.30;94.30;;;;;;5081022;28;20439;-39
2021/06/15 12:13:00;;;;;;;6.77;4.67;;;26.30;94.00;;;;;;5079959;28;20410;-39
2021/06/15 12:15:26;;;;;;;4.40;4.00;;;26.50;94.50;;;;;;5068328;28;20415;-39
2021/06/15 12:17:52;;;;;;;6.13;3.40;;;26.60;94.30;;;;;;5088302;28;20799;-39
2021/06/15 12:20:27;;;;;;;3.67;3.37;;;26.70;93.60;;;;;;5069209;28;20438;-39
2021/06/15 12:22:53;;;;;;;3.87;3.33;;;26.80;93.40;;;;;;5069988;28;20242;-39
2021/06/15 12:25:28;;;;;;;5.03;3.17;;;26.80;92.60;;;;;;5082484;28;20512;-39
2021/06/15 12:28:32;;;;;;;5.70;3.07;;;26.70;93.00;;;;;;5086807;28;20465;-38
2021/06/15 12:31:06;;;;;;;4.60;2.57;;;26.50;92.60;;;;;;5015918;28;20445;-39
2021/06/15 12:33:32;;;;;;;4.63;3.07;;;26.60;92.90;;;;;;5024803;28;20511;-39
2021/06/15 12:36:00;;;;;;;4.57;3.13;;;26.60;92.70;;;;;;5047284;28;20522;-38
2021/06/15 12:38:26;;;;;;;4.67;2.83;;;26.60;92.10;;;;;;5068821;28;20422;-39
2021/06/15 12:40:52;;;;;;;3.90;2.60;;;26.50;92.60;;;;;;5076359;28;20435;-39
2021/06/15 12:43:21;;;;;;;3.20;2.87;;;26.60;93.10;;;;;;5054440;28;20231;-39
2021/06/15 12:45:47;;;;;;;3.60;3.30;;;26.40;92.90;;;;;;5080988;28;20460;-39
2021/06/15 12:48:25;;;;;;;3.43;2.90;;;26.20;91.80;;;;;;5069244;28;20478;-39